createdAt,value
2023-02-15T00:02:03.782Z,44.38
2023-02-15T00:04:47.386Z,40.75
2023-02-15T00:07:16.851Z,45.05
2023-02-15T00:09:46.911Z,62.80
2023-02-15T00:12:14.822Z,49.97
2023-02-15T00:14:43.169Z,62.17
2023-02-15T00:17:10.417Z,43.15
2023-02-15T00:19:38.024Z,43.75
2023-02-15T00:22:05.870Z,63.13
2023-02-15T00:24:33.871Z,42.40
2023-02-15T00:27:01.069Z,40.17
2023-02-15T00:29:29.111Z,41.97
2023-02-15T00:31:56.398Z,58.05
2023-02-15T00:34:27.999Z,59.55
2023-02-15T00:36:57.859Z,56.38
2023-02-15T00:39:25.436Z,59.88
2023-02-15T00:41:52.753Z,46.00
2023-02-15T00:44:20.366Z,53.13
2023-02-15T00:46:47.732Z,80.20
2023-02-15T00:49:15.414Z,63.92
2023-02-15T00:51:42.707Z,57.60
2023-02-15T00:54:10.165Z,42.65
2023-02-15T00:56:37.474Z,52.08
2023-02-15T00:59:05.017Z,49.38
2023-02-15T01:01:32.336Z,52.65
2023-02-15T01:03:59.899Z,54.47
2023-02-15T01:06:30.381Z,50.90
2023-02-15T01:08:57.833Z,48.35
2023-02-15T01:11:25.317Z,59.03
2023-02-15T01:13:58.492Z,56.10
2023-02-15T01:16:28.367Z,57.20
2023-02-15T01:18:56.301Z,51.03
2023-02-15T01:21:25.516Z,41.55
2023-02-15T01:23:53.388Z,43.78
2023-02-15T01:26:20.944Z,44.55
2023-02-15T01:28:48.558Z,45.00
2023-02-15T01:31:20.427Z,43.05
2023-02-15T01:33:49.163Z,45.10
2023-02-15T01:36:18.303Z,43.45
2023-02-15T01:38:46.355Z,45.78
2023-02-15T01:41:24.418Z,51.20
2023-02-15T01:43:58.580Z,50.50
2023-02-15T01:46:36.064Z,46.28
2023-02-15T01:49:15.435Z,48.10
2023-02-15T01:51:44.719Z,45.17
2023-02-15T01:54:18.338Z,50.58
2023-02-15T01:56:46.122Z,49.17
2023-02-15T01:59:24.313Z,51.47
2023-02-15T02:01:55.513Z,49.47
2023-02-15T02:04:34.964Z,47.27
2023-02-15T02:07:03.246Z,51.50
2023-02-15T02:09:33.179Z,49.42
2023-02-15T02:12:01.100Z,50.03
2023-02-15T02:14:29.002Z,50.15
2023-02-15T02:17:11.842Z,51.13
2023-02-15T02:20:16.370Z,49.53
2023-02-15T02:23:08.452Z,47.67
2023-02-15T02:25:41.936Z,49.67
2023-02-15T02:28:46.311Z,52.65
2023-02-15T02:31:32.808Z,52.97
2023-02-15T02:34:06.904Z,51.17
2023-02-15T02:37:08.081Z,56.55
2023-02-15T02:39:57.705Z,48.90
2023-02-15T02:42:40.032Z,49.55
2023-02-15T02:45:29.395Z,51.58
2023-02-15T02:48:28.858Z,51.47
2023-02-15T02:50:56.094Z,48.95
2023-02-15T02:53:23.905Z,49.53
2023-02-15T02:55:59.668Z,47.33
2023-02-15T02:58:42.580Z,46.88
2023-02-15T03:03:51.363Z,51.95
2023-02-15T03:06:36.906Z,48.90
2023-02-15T03:09:45.066Z,50.47
2023-02-15T03:12:16.915Z,49.50
2023-02-15T03:14:52.806Z,48.15
2023-02-15T03:17:26.713Z,44.65
2023-02-15T03:19:57.731Z,43.97
2023-02-15T03:22:31.236Z,45.20
2023-02-15T03:25:07.797Z,46.80
2023-02-15T03:27:46.957Z,46.03
2023-02-15T03:30:16.284Z,45.75
2023-02-15T03:32:45.937Z,46.78
2023-02-15T03:35:13.371Z,47.80
2023-02-15T03:37:49.649Z,46.83
2023-02-15T03:40:56.486Z,46.47
2023-02-15T03:43:41.823Z,46.35
2023-02-15T03:46:33.343Z,47.67
2023-02-15T03:49:11.491Z,49.47
2023-02-15T03:51:41.921Z,50.30
2023-02-15T03:54:40.290Z,43.65
2023-02-15T03:57:29.532Z,23.92
2023-02-15T04:00:15.830Z,29.88
2023-02-15T04:02:59.232Z,30.95
2023-02-15T04:05:26.584Z,21.15
2023-02-15T04:07:54.083Z,25.33
2023-02-15T04:10:39.822Z,23.17
2023-02-15T04:13:07.438Z,22.20
2023-02-15T04:15:53.291Z,22.33
2023-02-15T04:18:20.836Z,28.23
2023-02-15T04:21:06.810Z,26.77
2023-02-15T04:23:52.872Z,30.23
2023-02-15T04:26:20.260Z,30.85
2023-02-15T04:28:47.786Z,28.70
2023-02-15T04:31:14.997Z,27.35
2023-02-15T04:33:44.785Z,28.42
2023-02-15T04:36:12.061Z,30.52
2023-02-15T04:38:39.513Z,29.67
2023-02-15T04:41:06.776Z,28.92
2023-02-15T04:43:34.306Z,32.25
2023-02-15T04:46:01.844Z,28.88
2023-02-15T04:48:29.667Z,30.45
2023-02-15T04:50:56.997Z,24.77
2023-02-15T04:53:24.447Z,24.70
2023-02-15T04:55:51.824Z,24.95
2023-02-15T04:58:19.239Z,25.88
2023-02-15T05:00:46.510Z,24.50
2023-02-15T05:03:14.089Z,25.08
2023-02-15T05:05:41.617Z,25.30
2023-02-15T05:08:09.234Z,26.23
2023-02-15T05:10:36.455Z,26.55
2023-02-15T05:13:03.952Z,25.23
2023-02-15T05:15:31.238Z,26.13
2023-02-15T05:17:58.804Z,26.45
2023-02-15T05:20:26.062Z,25.92
2023-02-15T05:22:56.592Z,27.95
2023-02-15T05:25:42.473Z,26.38
2023-02-15T05:28:21.571Z,26.63
2023-02-15T05:31:03.102Z,29.05
2023-02-15T05:33:30.862Z,28.98
2023-02-15T05:35:58.237Z,30.08
2023-02-15T05:38:25.830Z,31.58
2023-02-15T05:40:53.592Z,29.65
2023-02-15T05:43:21.970Z,31.75
2023-02-15T05:45:51.092Z,33.83
2023-02-15T05:48:19.475Z,32.03
2023-02-15T05:50:46.691Z,32.10
2023-02-15T05:53:14.303Z,34.33
2023-02-15T05:55:42.090Z,34.47
2023-02-15T05:58:09.538Z,28.55
2023-02-15T06:00:38.139Z,29.05
2023-02-15T06:03:05.793Z,29.08
2023-02-15T06:05:33.012Z,29.27
2023-02-15T06:08:00.524Z,30.45
2023-02-15T06:10:27.927Z,29.15
2023-02-15T06:12:55.318Z,32.22
2023-02-15T06:15:22.460Z,34.53
2023-02-15T06:17:49.944Z,34.85
2023-02-15T06:20:17.540Z,34.97
2023-02-15T06:22:45.116Z,34.42
2023-02-15T06:25:12.443Z,31.08
2023-02-15T06:27:43.148Z,32.20
2023-02-15T06:30:11.710Z,31.40
2023-02-15T06:32:39.262Z,31.90
2023-02-15T06:35:06.803Z,35.92
2023-02-15T06:37:34.998Z,33.13
2023-02-15T06:40:03.901Z,37.28
2023-02-15T06:42:31.627Z,38.05
2023-02-15T06:45:00.040Z,38.15
2023-02-15T06:47:27.714Z,40.03
2023-02-15T06:49:54.930Z,39.70
2023-02-15T06:52:22.609Z,42.35
2023-02-15T06:54:49.789Z,43.90
2023-02-15T06:57:17.386Z,45.45
2023-02-15T06:59:44.717Z,43.28
2023-02-15T07:02:13.668Z,43.75
2023-02-15T07:04:41.042Z,42.40
2023-02-15T07:07:12.622Z,39.05
2023-02-15T07:09:40.476Z,37.90
2023-02-15T07:12:27.026Z,39.53
2023-02-15T07:14:54.328Z,39.22
2023-02-15T07:17:35.382Z,39.03
2023-02-15T07:20:06.415Z,40.08
2023-02-15T07:22:35.135Z,40.40
2023-02-15T07:25:03.026Z,37.70
2023-02-15T07:27:31.795Z,39.63
2023-02-15T07:29:59.516Z,39.35
2023-02-15T07:32:34.078Z,38.70
2023-02-15T07:35:01.594Z,41.08
2023-02-15T07:37:29.309Z,41.00
2023-02-15T07:39:56.593Z,39.85
2023-02-15T07:42:24.088Z,38.33
2023-02-15T07:44:53.630Z,36.05
2023-02-15T07:47:21.100Z,36.25
2023-02-15T07:49:50.363Z,32.05
2023-02-15T07:52:17.883Z,33.10
2023-02-15T07:54:45.293Z,35.55
2023-02-15T07:57:12.762Z,34.08
2023-02-15T07:59:40.017Z,35.58
2023-02-15T08:02:13.551Z,34.78
2023-02-15T08:04:40.820Z,34.00
2023-02-15T08:07:08.919Z,35.75
2023-02-15T08:09:36.200Z,37.45
2023-02-15T08:12:05.182Z,34.17
2023-02-15T08:14:33.815Z,37.97
2023-02-15T08:17:06.045Z,37.42
2023-02-15T08:19:33.859Z,38.50
2023-02-15T08:22:08.956Z,38.75
2023-02-15T08:24:38.165Z,41.42
2023-02-15T08:27:07.533Z,45.85
2023-02-15T08:29:36.677Z,39.13
2023-02-15T08:32:10.295Z,42.75
2023-02-15T08:34:42.403Z,41.53
2023-02-15T08:39:37.850Z,42.65
2023-02-15T08:42:05.473Z,43.22
2023-02-15T08:44:32.714Z,42.80
2023-02-15T08:47:05.205Z,45.08
2023-02-15T08:49:32.732Z,45.85
2023-02-15T08:52:00.838Z,55.00
2023-02-15T08:54:30.701Z,48.90
2023-02-15T08:56:58.185Z,47.67
2023-02-15T08:59:27.857Z,40.35
2023-02-15T09:01:56.289Z,40.45
2023-02-15T09:04:23.746Z,41.03
2023-02-15T09:06:52.023Z,43.42
2023-02-15T09:09:20.552Z,44.55
2023-02-15T09:11:54.559Z,41.88
2023-02-15T09:14:25.998Z,42.63
2023-02-15T09:16:54.218Z,43.63
2023-02-15T09:19:23.364Z,48.60
2023-02-15T09:21:51.492Z,48.70
2023-02-15T09:24:19.489Z,52.30
2023-02-15T09:26:48.920Z,50.05
2023-02-15T09:29:17.421Z,56.60
2023-02-15T09:31:47.235Z,58.42
2023-02-15T09:34:19.239Z,55.30
2023-02-15T09:39:16.523Z,50.38
2023-02-15T09:42:02.661Z,53.20
2023-02-15T09:44:48.924Z,52.33
2023-02-15T09:47:43.580Z,51.72
2023-02-15T09:50:32.451Z,47.90
2023-02-15T09:53:22.865Z,46.63
2023-02-15T09:56:02.877Z,43.15
2023-02-15T09:58:52.159Z,47.28
2023-02-15T10:01:48.631Z,43.55
2023-02-15T10:04:27.938Z,41.33
2023-02-15T10:07:18.549Z,40.53
2023-02-15T10:10:01.764Z,41.35
2023-02-15T10:12:41.116Z,45.05
2023-02-15T10:15:25.089Z,39.67
2023-02-15T10:18:27.655Z,44.10
2023-02-15T10:21:22.339Z,43.67
2023-02-15T10:24:26.711Z,44.97
2023-02-15T10:27:03.675Z,42.13
2023-02-15T10:29:37.894Z,42.75
2023-02-15T10:32:11.383Z,43.00
2023-02-15T10:34:40.861Z,42.63
2023-02-15T10:37:27.334Z,43.20
2023-02-15T10:40:00.509Z,41.63
2023-02-15T10:42:52.012Z,43.67
2023-02-15T10:45:32.757Z,43.80
2023-02-15T10:48:35.098Z,42.97
2023-02-15T10:51:06.247Z,44.57
2023-02-15T10:53:42.212Z,45.50
2023-02-15T10:56:32.052Z,47.45
2023-02-15T10:59:02.134Z,51.50
2023-02-15T11:02:08.621Z,51.40
2023-02-15T11:04:54.595Z,51.47
2023-02-15T11:07:42.567Z,51.72
2023-02-15T11:10:34.811Z,51.00
2023-02-15T11:13:15.390Z,47.08
2023-02-15T11:15:49.056Z,49.15
2023-02-15T11:18:48.844Z,49.13
2023-02-15T11:21:25.187Z,47.63
2023-02-15T11:23:53.707Z,48.55
2023-02-15T11:26:33.122Z,49.38
2023-02-15T11:29:14.672Z,48.08
2023-02-15T11:31:49.186Z,49.80
2023-02-15T11:34:34.546Z,46.28
2023-02-15T11:37:28.076Z,50.58
2023-02-15T11:39:55.818Z,49.85
2023-02-15T11:42:26.286Z,54.15
2023-02-15T11:45:32.135Z,49.05
2023-02-15T11:48:01.190Z,50.85
2023-02-15T11:50:33.654Z,50.85
2023-02-15T11:53:05.133Z,48.60
2023-02-15T11:55:34.244Z,52.88
2023-02-15T11:58:30.865Z,48.08
2023-02-15T12:01:24.524Z,50.03
2023-02-15T12:03:56.655Z,51.30
2023-02-15T12:06:32.210Z,52.95
2023-02-15T12:09:23.583Z,51.60
2023-02-15T12:11:51.209Z,52.42
2023-02-15T12:14:19.473Z,53.88
2023-02-15T12:16:50.821Z,54.47
2023-02-15T12:19:53.524Z,53.40
2023-02-15T12:22:32.797Z,56.25
2023-02-15T12:25:03.133Z,46.50
2023-02-15T12:27:38.117Z,49.15
2023-02-15T12:30:25.938Z,46.72
2023-02-15T12:33:06.212Z,54.13
2023-02-15T12:35:37.666Z,51.47
2023-02-15T12:38:22.220Z,54.25
2023-02-15T12:41:21.047Z,52.85
2023-02-15T12:43:48.529Z,52.33
2023-02-15T12:46:27.131Z,51.50
2023-02-15T12:49:21.280Z,54.10
2023-02-15T12:51:53.401Z,54.40
2023-02-15T12:54:23.867Z,54.20
2023-02-15T12:56:52.782Z,52.47
2023-02-15T12:59:23.246Z,55.85
2023-02-15T13:01:54.903Z,54.83
2023-02-15T13:04:30.849Z,58.50
2023-02-15T13:07:03.750Z,57.03
2023-02-15T13:09:35.358Z,55.50
2023-02-15T13:12:17.684Z,55.17
2023-02-15T13:14:47.871Z,55.65
2023-02-15T13:17:18.553Z,54.90
2023-02-15T13:19:55.483Z,49.38
2023-02-15T13:22:38.229Z,51.53
2023-02-15T13:25:24.050Z,54.22
2023-02-15T13:27:59.125Z,52.20
2023-02-15T13:30:33.601Z,51.78
2023-02-15T13:33:07.550Z,52.40
2023-02-15T13:35:48.298Z,53.45
2023-02-15T13:38:44.537Z,54.53
2023-02-15T13:41:39.738Z,55.33
2023-02-15T13:44:11.109Z,53.13
2023-02-15T13:47:27.083Z,52.80
2023-02-15T13:50:28.480Z,54.45
2023-02-15T13:53:12.992Z,52.80
2023-02-15T13:55:45.790Z,54.03
2023-02-15T13:58:32.024Z,56.10
2023-02-15T14:01:08.457Z,54.78
2023-02-15T14:04:01.838Z,57.72
2023-02-15T14:06:51.155Z,54.63
2023-02-15T14:09:38.675Z,55.88
2023-02-15T14:12:09.000Z,58.45
2023-02-15T14:15:13.769Z,55.33
2023-02-15T14:18:19.357Z,52.65
2023-02-15T14:21:10.643Z,56.65
2023-02-15T14:23:43.418Z,51.83
2023-02-15T14:26:39.193Z,50.25
2023-02-15T14:29:09.721Z,51.22
2023-02-15T14:31:45.029Z,53.92
2023-02-15T14:34:38.943Z,53.90
2023-02-15T14:37:06.545Z,53.70
2023-02-15T14:40:12.167Z,52.60
2023-02-15T14:43:05.572Z,49.90
2023-02-15T14:45:51.666Z,52.67
2023-02-15T14:48:31.181Z,49.13
2023-02-15T14:50:59.107Z,47.47
2023-02-15T14:53:39.599Z,49.72
2023-02-15T14:56:22.472Z,49.40
2023-02-15T15:01:32.952Z,52.88
2023-02-15T15:04:12.935Z,53.78
2023-02-15T15:06:44.039Z,48.35
2023-02-15T15:09:29.088Z,62.03
2023-02-15T15:12:16.318Z,54.17
2023-02-15T15:14:46.826Z,53.30
2023-02-15T15:17:34.997Z,54.15
2023-02-15T15:20:08.506Z,53.33
2023-02-15T15:22:37.402Z,50.25
2023-02-15T15:25:34.751Z,55.63
2023-02-15T15:28:04.310Z,54.47
2023-02-15T15:30:31.762Z,54.63
2023-02-15T15:33:37.475Z,55.85
2023-02-15T15:36:37.879Z,53.47
2023-02-15T15:39:35.641Z,54.35
2023-02-15T15:42:18.142Z,53.67
2023-02-15T15:47:31.017Z,52.13
2023-02-15T15:50:00.120Z,53.50
2023-02-15T15:52:29.641Z,55.75
2023-02-15T15:55:04.264Z,55.58
2023-02-15T15:57:37.007Z,58.30
2023-02-15T16:00:26.157Z,56.42
2023-02-15T16:02:58.809Z,57.70
2023-02-15T16:05:26.786Z,58.92
2023-02-15T16:07:54.136Z,59.55
2023-02-15T16:10:27.671Z,59.72
2023-02-15T16:12:56.325Z,56.90
2023-02-15T16:15:31.499Z,53.53
2023-02-15T16:17:59.866Z,55.72
2023-02-15T16:20:30.039Z,56.22
2023-02-15T16:23:45.210Z,57.17
2023-02-15T16:26:45.315Z,56.53
2023-02-15T16:29:27.238Z,58.97
2023-02-15T16:32:03.351Z,57.45
2023-02-15T16:34:33.557Z,60.30
2023-02-15T16:37:15.350Z,60.55
2023-02-15T16:39:44.428Z,61.15
2023-02-15T16:42:14.189Z,63.67
2023-02-15T16:44:42.126Z,61.28
2023-02-15T16:47:20.836Z,62.53
2023-02-15T16:49:51.098Z,61.42
2023-02-15T16:52:25.191Z,62.95
2023-02-15T16:55:01.505Z,62.33
2023-02-15T16:57:36.569Z,65.07
2023-02-15T17:00:15.622Z,62.88
2023-02-15T17:03:04.354Z,60.90
2023-02-15T17:05:47.577Z,60.47
2023-02-15T17:08:17.613Z,61.13
2023-02-15T17:11:14.788Z,65.78
2023-02-15T17:14:06.470Z,63.50
2023-02-15T17:16:42.164Z,61.28
2023-02-15T17:19:16.485Z,63.50
2023-02-15T17:21:49.888Z,64.78
2023-02-15T17:24:27.038Z,60.28
2023-02-15T17:27:01.834Z,62.90
2023-02-15T17:29:37.841Z,62.08
2023-02-15T17:32:07.332Z,61.65
2023-02-15T17:34:43.828Z,63.17
2023-02-15T17:37:35.314Z,62.65
2023-02-15T17:40:21.048Z,61.55
2023-02-15T17:42:48.370Z,63.35
2023-02-15T17:45:16.095Z,61.67
2023-02-15T17:47:43.967Z,61.90
2023-02-15T17:50:37.562Z,61.50
2023-02-15T17:53:08.632Z,59.95
2023-02-15T17:55:36.537Z,63.63
2023-02-15T17:58:07.004Z,62.15
2023-02-15T18:00:57.393Z,63.83
2023-02-15T18:03:48.309Z,61.22
2023-02-15T18:06:34.811Z,64.80
2023-02-15T18:09:20.468Z,61.20
2023-02-15T18:11:51.387Z,65.70
2023-02-15T18:14:18.578Z,61.72
2023-02-15T18:16:46.340Z,66.00
2023-02-15T18:19:19.531Z,62.00
2023-02-15T18:21:47.602Z,62.08
2023-02-15T18:24:21.160Z,62.00
2023-02-15T18:26:49.143Z,64.13
2023-02-15T18:29:16.877Z,64.55
2023-02-15T18:31:47.049Z,62.05
2023-02-15T18:34:29.706Z,61.30
2023-02-15T18:36:58.437Z,60.63
2023-02-15T18:39:26.217Z,60.70
2023-02-15T18:41:54.503Z,62.35
2023-02-15T18:44:21.983Z,61.67
2023-02-15T18:46:49.593Z,60.97
2023-02-15T18:49:16.837Z,63.38
2023-02-15T18:51:44.873Z,65.00
2023-02-15T18:54:24.724Z,65.05
2023-02-15T18:56:58.486Z,67.68
2023-02-15T18:59:28.190Z,62.67
2023-02-15T19:01:57.997Z,66.93
2023-02-15T19:04:25.995Z,65.50
2023-02-15T19:06:54.970Z,71.95
2023-02-15T19:09:24.191Z,67.18
2023-02-15T19:11:54.618Z,64.57
2023-02-15T19:14:30.865Z,69.10
2023-02-15T19:17:00.529Z,68.47
2023-02-15T19:19:28.297Z,70.25
2023-02-15T19:21:56.416Z,69.93
2023-02-15T19:24:30.077Z,70.40
2023-02-15T19:26:57.627Z,71.07
2023-02-15T19:29:30.483Z,70.65
2023-02-15T19:31:58.631Z,75.35
2023-02-15T19:34:26.086Z,72.85
2023-02-15T19:36:55.002Z,71.22
2023-02-15T19:39:32.038Z,70.90
2023-02-15T19:41:59.672Z,71.30
2023-02-15T19:44:26.914Z,71.45
2023-02-15T19:46:54.385Z,74.70
2023-02-15T19:49:21.592Z,75.57
2023-02-15T19:51:49.553Z,75.53
2023-02-15T19:54:31.036Z,73.95
2023-02-15T19:56:59.124Z,78.38
2023-02-15T19:59:34.255Z,79.15
2023-02-15T20:02:02.128Z,74.53
2023-02-15T20:04:29.571Z,80.75
2023-02-15T20:07:01.256Z,76.43
2023-02-15T20:09:35.492Z,79.67
2023-02-15T20:12:03.250Z,77.22
2023-02-15T20:14:30.827Z,73.53
2023-02-15T20:16:58.428Z,71.20
2023-02-15T20:19:25.673Z,72.72
2023-02-15T20:21:54.966Z,72.25
2023-02-15T20:24:25.067Z,76.63
2023-02-15T20:26:52.550Z,74.22
2023-02-15T20:29:20.391Z,72.35
2023-02-15T20:31:48.109Z,72.32
2023-02-15T20:34:15.553Z,74.22
2023-02-15T20:36:43.102Z,69.95
2023-02-15T20:39:20.435Z,71.45
2023-02-15T20:41:48.402Z,72.63
2023-02-15T20:44:21.598Z,73.63
2023-02-15T20:46:51.306Z,71.80
2023-02-15T20:49:18.683Z,72.28
2023-02-15T20:51:47.583Z,69.80
2023-02-15T20:54:17.788Z,67.53
2023-02-15T20:56:46.729Z,70.70
2023-02-15T20:59:23.963Z,70.43
2023-02-15T21:01:56.726Z,68.13
2023-02-15T21:06:53.979Z,73.45
2023-02-15T21:09:21.271Z,73.45
2023-02-15T21:11:52.138Z,70.22
2023-02-15T21:14:22.279Z,71.93
2023-02-15T21:16:51.503Z,74.50
2023-02-15T21:19:22.246Z,70.60
2023-02-15T21:21:52.752Z,74.60
2023-02-15T21:24:25.698Z,77.13
2023-02-15T21:26:54.009Z,73.90
2023-02-15T21:29:23.909Z,76.70
2023-02-15T21:31:51.637Z,76.43
2023-02-15T21:34:19.429Z,76.18
2023-02-15T21:36:50.579Z,75.90
2023-02-15T21:39:27.370Z,75.10
2023-02-15T21:42:14.905Z,80.35
2023-02-15T21:45:01.405Z,73.63
2023-02-15T21:47:49.899Z,75.65
2023-02-15T21:50:42.027Z,74.47
2023-02-15T21:53:33.537Z,72.28
2023-02-15T21:56:04.696Z,76.47
2023-02-15T21:58:35.397Z,74.95
2023-02-15T22:01:05.533Z,76.18
2023-02-15T22:03:36.849Z,75.20
2023-02-15T22:06:05.510Z,74.22
2023-02-15T22:08:34.418Z,73.78
2023-02-15T22:11:02.080Z,71.68
2023-02-15T22:13:32.416Z,74.60
2023-02-15T22:16:00.119Z,76.10
2023-02-15T22:18:33.369Z,77.70
2023-02-15T22:21:03.114Z,73.30
2023-02-15T22:23:31.152Z,75.80
2023-02-15T22:26:02.998Z,76.70
2023-02-15T22:28:41.552Z,75.15
2023-02-15T22:31:14.635Z,77.25
2023-02-15T22:33:44.112Z,72.32
2023-02-15T22:36:29.649Z,73.60
2023-02-15T22:38:57.733Z,75.57
2023-02-15T22:41:29.230Z,73.78
2023-02-15T22:43:57.450Z,72.03
2023-02-15T22:46:26.092Z,80.18
2023-02-15T22:48:54.135Z,79.15
2023-02-15T22:51:23.918Z,74.63
2023-02-15T22:53:52.388Z,99.75
2023-02-15T22:56:26.727Z,97.90
2023-02-15T22:59:02.121Z,100.47
2023-02-15T23:01:34.836Z,86.25
2023-02-15T23:04:04.073Z,80.63
2023-02-15T23:06:34.301Z,76.45
2023-02-15T23:09:02.156Z,76.40
2023-02-15T23:11:29.490Z,73.95
2023-02-15T23:13:57.616Z,76.57
2023-02-15T23:16:24.847Z,89.68
2023-02-15T23:18:52.313Z,80.40
2023-02-15T23:21:31.768Z,84.50
2023-02-15T23:24:26.473Z,80.30
2023-02-15T23:26:54.214Z,79.28
2023-02-15T23:29:23.429Z,76.90
2023-02-15T23:31:53.256Z,78.07
2023-02-15T23:34:24.298Z,87.38
2023-02-15T23:36:51.494Z,84.45
2023-02-15T23:39:43.644Z,79.35
2023-02-15T23:42:21.712Z,78.93
2023-02-15T23:44:49.380Z,77.63
2023-02-15T23:47:21.447Z,80.50
2023-02-15T23:49:48.968Z,84.57
2023-02-15T23:52:16.131Z,78.97
2023-02-15T23:54:43.688Z,79.57
2023-02-15T23:57:12.919Z,78.15
2023-02-15T23:59:43.459Z,82.05
